NKS461 KDTW-KLGA
Flight info
| Callsign | NKS461 |
|---|---|
| Flight time | 2h 2m |
| Altitude | 39000 |
| Route | PAVYL3 ESSBE SPYDY Q186 WEVEL ETG MIP4 |
| Aircraft | A20N/M-SDE2E3FGHIRWXY/LB1 |
Departure
| Time | 2026-05-05 20:29 |
|---|---|
| Airport | Detroit Metropolitan Wayne County Airport (KDTW) |
Arrival
| Time | 2026-05-05 22:31 |
|---|---|
| Airport | LaGuardia Airport (KLGA) |
| Time | Latitude | Longitude | Altitude | Speed | Heading |
|---|---|---|---|---|---|
| 2026-05-05 19:28 | 42.22519 | -83.34958 | 649 ft | 0 kts | 106° |
| 2026-05-05 20:10 | 42.22520 | -83.34962 | 649 ft | 3 kts | 107° |
| 2026-05-05 20:10 | 42.22530 | -83.34994 | 651 ft | 4 kts | 125° |
| 2026-05-05 20:10 | 42.22547 | -83.35019 | 650 ft | 4 kts | 154° |
| 2026-05-05 20:10 | 42.22569 | -83.35023 | 649 ft | 2 kts | 208° |
| 2026-05-05 20:16 | 42.22555 | -83.35033 | 649 ft | 4 kts | 209° |
| 2026-05-05 20:17 | 42.22523 | -83.35057 | 649 ft | 7 kts | 209° |
| 2026-05-05 20:17 | 42.22475 | -83.35093 | 649 ft | 9 kts | 209° |
| 2026-05-05 20:17 | 42.22424 | -83.35158 | 650 ft | 11 kts | 233° |
| 2026-05-05 20:17 | 42.22377 | -83.35248 | 650 ft | 13 kts | 235° |
| 2026-05-05 20:18 | 42.22310 | -83.35325 | 649 ft | 13 kts | 218° |
| 2026-05-05 20:18 | 42.22227 | -83.35393 | 649 ft | 15 kts | 205° |
| 2026-05-05 20:18 | 42.22133 | -83.35461 | 650 ft | 14 kts | 213° |
| 2026-05-05 20:18 | 42.22041 | -83.35531 | 648 ft | 16 kts | 208° |
| 2026-05-05 20:19 | 42.21982 | -83.35575 | 648 ft | 9 kts | 208° |
| 2026-05-05 20:19 | 42.21919 | -83.35621 | 650 ft | 11 kts | 208° |
| 2026-05-05 20:19 | 42.21867 | -83.35658 | 649 ft | 8 kts | 204° |
| 2026-05-05 20:19 | 42.21826 | -83.35625 | 648 ft | 8 kts | 110° |
| 2026-05-05 20:20 | 42.21822 | -83.35537 | 648 ft | 11 kts | 87° |
| 2026-05-05 20:20 | 42.21821 | -83.35418 | 648 ft | 14 kts | 90° |
| 2026-05-05 20:20 | 42.21825 | -83.35268 | 648 ft | 17 kts | 88° |
| 2026-05-05 20:20 | 42.21828 | -83.35102 | 649 ft | 19 kts | 88° |
| 2026-05-05 20:21 | 42.21830 | -83.34920 | 649 ft | 20 kts | 89° |
| 2026-05-05 20:21 | 42.21833 | -83.34739 | 649 ft | 18 kts | 89° |
| 2026-05-05 20:21 | 42.21836 | -83.34565 | 650 ft | 13 kts | 87° |
| 2026-05-05 20:21 | 42.21838 | -83.34547 | 650 ft | 3 kts | 81° |
| 2026-05-05 20:22 | 42.21876 | -83.34490 | 651 ft | 14 kts | 34° |
| 2026-05-05 20:22 | 42.21977 | -83.34413 | 650 ft | 19 kts | 29° |
| 2026-05-05 20:22 | 42.22103 | -83.34321 | 649 ft | 22 kts | 28° |
| 2026-05-05 20:22 | 42.22245 | -83.34216 | 649 ft | 24 kts | 29° |
| 2026-05-05 20:23 | 42.22384 | -83.34112 | 649 ft | 24 kts | 28° |
| 2026-05-05 20:23 | 42.22516 | -83.34014 | 649 ft | 10 kts | 29° |
| 2026-05-05 20:23 | 42.22587 | -83.33962 | 649 ft | 13 kts | 29° |
| 2026-05-05 20:23 | 42.22680 | -83.33893 | 649 ft | 17 kts | 28° |
| 2026-05-05 20:24 | 42.22779 | -83.33821 | 649 ft | 11 kts | 29° |
| 2026-05-05 20:24 | 42.22852 | -83.33764 | 650 ft | 0 kts | 32° |
| 2026-05-05 20:24 | 42.22852 | -83.33763 | 650 ft | 0 kts | 39° |
| 2026-05-05 20:24 | 42.22853 | -83.33761 | 650 ft | 1 kts | 47° |
| 2026-05-05 20:25 | 42.22856 | -83.33744 | 648 ft | 3 kts | 82° |
| 2026-05-05 20:25 | 42.22857 | -83.33735 | 648 ft | 0 kts | 86° |
| 2026-05-05 20:26 | 42.22856 | -83.33731 | 648 ft | 1 kts | 102° |
| 2026-05-05 20:26 | 42.22849 | -83.33713 | 648 ft | 4 kts | 114° |
| 2026-05-05 20:26 | 42.22833 | -83.33666 | 649 ft | 7 kts | 114° |
| 2026-05-05 20:26 | 42.22805 | -83.33640 | 649 ft | 0 kts | 209° |
| 2026-05-05 20:27 | 42.22799 | -83.33645 | 649 ft | 2 kts | 207° |
| 2026-05-05 20:27 | 42.22777 | -83.33655 | 649 ft | 5 kts | 199° |
| 2026-05-05 20:27 | 42.22759 | -83.33668 | 650 ft | 0 kts | 208° |
| 2026-05-05 20:27 | 42.22758 | -83.33668 | 650 ft | 0 kts | 208° |
| 2026-05-05 20:28 | 42.22757 | -83.33669 | 650 ft | 6 kts | 208° |
| 2026-05-05 20:28 | 42.22502 | -83.33859 | 652 ft | 76 kts | 209° |
| 2026-05-05 20:28 | 42.21868 | -83.34328 | 650 ft | 128 kts | 208° |
| 2026-05-05 20:28 | 42.20984 | -83.34947 | 901 ft | 146 kts | 208° |
| 2026-05-05 20:29 | 42.20105 | -83.35541 | 1564 ft | 139 kts | 211° |
| 2026-05-05 20:29 | 42.19169 | -83.36095 | 1943 ft | 158 kts | 198° |
| 2026-05-05 20:29 | 42.18065 | -83.36152 | 2560 ft | 161 kts | 175° |
| 2026-05-05 20:29 | 42.16844 | -83.35818 | 2667 ft | 195 kts | 175° |
| 2026-05-05 20:30 | 42.15440 | -83.35620 | 2928 ft | 220 kts | 182° |
| 2026-05-05 20:30 | 42.13818 | -83.35631 | 3303 ft | 244 kts | 186° |
| 2026-05-05 20:30 | 42.12116 | -83.35717 | 3961 ft | 258 kts | 186° |
| 2026-05-05 20:30 | 42.10326 | -83.35736 | 5094 ft | 258 kts | 186° |
| 2026-05-05 20:31 | 42.08534 | -83.35689 | 6085 ft | 256 kts | 186° |
| 2026-05-05 20:31 | 42.06770 | -83.35605 | 6579 ft | 259 kts | 184° |
| 2026-05-05 20:31 | 42.04968 | -83.34922 | 6837 ft | 277 kts | 158° |
| 2026-05-05 20:31 | 42.03511 | -83.33162 | 6970 ft | 298 kts | 132° |
| 2026-05-05 20:32 | 42.02640 | -83.30522 | 7006 ft | 311 kts | 109° |
| 2026-05-05 20:32 | 42.02254 | -83.27678 | 7001 ft | 314 kts | 102° |
| 2026-05-05 20:32 | 42.01979 | -83.24773 | 6992 ft | 313 kts | 102° |
| 2026-05-05 20:32 | 42.01677 | -83.21878 | 6996 ft | 313 kts | 103° |
| 2026-05-05 20:33 | 42.01445 | -83.18955 | 6993 ft | 317 kts | 94° |
| 2026-05-05 20:33 | 42.01661 | -83.15994 | 6996 ft | 321 kts | 81° |
| 2026-05-05 20:33 | 42.02097 | -83.13055 | 7000 ft | 321 kts | 81° |
| 2026-05-05 20:33 | 42.02525 | -83.10101 | 6997 ft | 321 kts | 78° |
| 2026-05-05 20:34 | 42.03190 | -83.07270 | 6995 ft | 323 kts | 71° |
| 2026-05-05 20:34 | 42.03922 | -83.04417 | 6994 ft | 323 kts | 72° |
| 2026-05-05 20:34 | 42.04654 | -83.01522 | 7050 ft | 325 kts | 72° |
| 2026-05-05 20:34 | 42.05382 | -82.98634 | 7474 ft | 328 kts | 72° |
| 2026-05-05 20:35 | 42.06112 | -82.95737 | 8435 ft | 330 kts | 72° |
| 2026-05-05 20:35 | 42.06853 | -82.92795 | 9399 ft | 336 kts | 72° |
| 2026-05-05 20:35 | 42.07607 | -82.89801 | 10279 ft | 342 kts | 72° |
| 2026-05-05 20:35 | 42.08348 | -82.86854 | 10722 ft | 363 kts | 72° |
| 2026-05-05 20:36 | 42.09199 | -82.83467 | 11061 ft | 386 kts | 72° |
| 2026-05-05 20:36 | 42.10066 | -82.80014 | 11758 ft | 395 kts | 72° |
| 2026-05-05 20:36 | 42.10955 | -82.76473 | 12638 ft | 399 kts | 72° |
| 2026-05-05 20:36 | 42.11844 | -82.72927 | 13496 ft | 403 kts | 72° |
| 2026-05-05 20:37 | 42.12744 | -82.69327 | 14265 ft | 408 kts | 72° |
| 2026-05-05 20:37 | 42.13634 | -82.65716 | 14994 ft | 412 kts | 75° |
| 2026-05-05 20:37 | 42.14240 | -82.61931 | 15738 ft | 415 kts | 85° |
| 2026-05-05 20:37 | 42.14394 | -82.58042 | 16502 ft | 417 kts | 94° |
| 2026-05-05 20:38 | 42.14354 | -82.54125 | 17280 ft | 422 kts | 94° |
| 2026-05-05 20:38 | 42.14328 | -82.50143 | 18055 ft | 427 kts | 94° |
| 2026-05-05 20:38 | 42.14294 | -82.46119 | 18683 ft | 431 kts | 96° |
| 2026-05-05 20:38 | 42.13962 | -82.42163 | 19280 ft | 431 kts | 104° |
| 2026-05-05 20:39 | 42.13452 | -82.38164 | 19868 ft | 436 kts | 104° |
| 2026-05-05 20:39 | 42.12943 | -82.34131 | 20476 ft | 440 kts | 104° |
| 2026-05-05 20:39 | 42.12430 | -82.30045 | 21065 ft | 445 kts | 104° |
| 2026-05-05 20:39 | 42.11910 | -82.25901 | 21652 ft | 449 kts | 104° |
| 2026-05-05 20:40 | 42.11386 | -82.21740 | 22235 ft | 454 kts | 104° |
| 2026-05-05 20:40 | 42.10854 | -82.17535 | 22818 ft | 458 kts | 104° |
| 2026-05-05 20:40 | 42.10314 | -82.13275 | 23401 ft | 462 kts | 103° |
| 2026-05-05 20:40 | 42.09768 | -82.08985 | 23875 ft | 467 kts | 103° |
| 2026-05-05 20:41 | 42.09218 | -82.04672 | 24344 ft | 471 kts | 103° |
| 2026-05-05 20:41 | 42.08668 | -82.00374 | 24784 ft | 475 kts | 104° |
| 2026-05-05 20:41 | 42.08103 | -81.95971 | 25233 ft | 479 kts | 104° |
| 2026-05-05 20:41 | 42.07532 | -81.91535 | 25670 ft | 483 kts | 104° |
| 2026-05-05 20:42 | 42.06954 | -81.87072 | 26093 ft | 486 kts | 104° |
| 2026-05-05 20:42 | 42.06048 | -81.82703 | 26490 ft | 482 kts | 118° |
| 2026-05-05 20:42 | 42.04504 | -81.78763 | 26896 ft | 474 kts | 131° |
| 2026-05-05 20:42 | 42.02399 | -81.75405 | 27276 ft | 464 kts | 145° |
| 2026-05-05 20:43 | 41.99870 | -81.72811 | 27682 ft | 451 kts | 159° |
| 2026-05-05 20:43 | 41.97126 | -81.71034 | 28064 ft | 443 kts | 167° |
| 2026-05-05 20:43 | 41.94261 | -81.69486 | 28460 ft | 445 kts | 167° |
| 2026-05-05 20:43 | 41.91412 | -81.67824 | 28842 ft | 451 kts | 165° |
| 2026-05-05 20:44 | 41.88559 | -81.65968 | 29217 ft | 457 kts | 162° |
| 2026-05-05 20:44 | 41.85725 | -81.63984 | 29581 ft | 461 kts | 161° |
| 2026-05-05 20:44 | 41.82885 | -81.61924 | 29937 ft | 464 kts | 161° |
| 2026-05-05 20:44 | 41.80059 | -81.59847 | 30264 ft | 466 kts | 160° |
| 2026-05-05 20:45 | 41.74340 | -81.55643 | 30960 ft | 469 kts | 160° |
| 2026-05-05 20:45 | 41.71518 | -81.53576 | 31363 ft | 470 kts | 160° |
| 2026-05-05 20:45 | 41.68652 | -81.51479 | 31809 ft | 469 kts | 160° |
| 2026-05-05 20:46 | 41.65792 | -81.49389 | 32235 ft | 468 kts | 160° |
| 2026-05-05 20:46 | 41.62934 | -81.47306 | 32633 ft | 468 kts | 160° |
| 2026-05-05 20:46 | 41.60112 | -81.45122 | 32990 ft | 476 kts | 153° |
| 2026-05-05 20:46 | 41.57618 | -81.42340 | 33320 ft | 489 kts | 141° |
| 2026-05-05 20:47 | 41.55548 | -81.38979 | 33625 ft | 500 kts | 130° |
| 2026-05-05 20:47 | 41.53855 | -81.34858 | 33921 ft | 511 kts | 117° |
| 2026-05-05 20:47 | 41.52748 | -81.30317 | 34141 ft | 519 kts | 105° |
| 2026-05-05 20:47 | 41.52271 | -81.25518 | 34367 ft | 524 kts | 94° |
| 2026-05-05 20:48 | 41.52149 | -81.20716 | 34604 ft | 525 kts | 92° |
| 2026-05-05 20:48 | 41.51997 | -81.15852 | 34847 ft | 526 kts | 94° |
| 2026-05-05 20:48 | 41.51725 | -81.10991 | 35079 ft | 527 kts | 96° |
| 2026-05-05 20:48 | 41.51351 | -81.06107 | 35322 ft | 528 kts | 97° |
| 2026-05-05 20:49 | 41.50922 | -81.01242 | 35545 ft | 528 kts | 98° |
| 2026-05-05 20:49 | 41.50466 | -80.96374 | 35768 ft | 529 kts | 98° |
| 2026-05-05 20:49 | 41.50001 | -80.91500 | 36028 ft | 530 kts | 97° |
| 2026-05-05 20:49 | 41.49533 | -80.86614 | 36289 ft | 531 kts | 97° |
| 2026-05-05 20:50 | 41.49065 | -80.81724 | 36519 ft | 532 kts | 97° |
| 2026-05-05 20:50 | 41.48596 | -80.76845 | 36741 ft | 532 kts | 97° |
| 2026-05-05 20:50 | 41.48129 | -80.71999 | 36950 ft | 533 kts | 97° |
| 2026-05-05 20:50 | 41.47657 | -80.67111 | 37165 ft | 533 kts | 97° |
| 2026-05-05 20:51 | 41.47180 | -80.62193 | 37388 ft | 534 kts | 97° |
| 2026-05-05 20:51 | 41.46703 | -80.57293 | 37591 ft | 534 kts | 96° |
| 2026-05-05 20:51 | 41.46221 | -80.52375 | 37806 ft | 535 kts | 96° |
| 2026-05-05 20:51 | 41.45738 | -80.47459 | 37993 ft | 535 kts | 96° |
| 2026-05-05 20:52 | 41.45252 | -80.42547 | 38192 ft | 535 kts | 96° |
| 2026-05-05 20:52 | 41.44778 | -80.37769 | 38381 ft | 535 kts | 96° |
| 2026-05-05 20:52 | 41.44273 | -80.32698 | 38563 ft | 536 kts | 96° |
| 2026-05-05 20:52 | 41.43782 | -80.27790 | 38743 ft | 535 kts | 96° |
| 2026-05-05 20:53 | 41.42800 | -80.18051 | 38844 ft | 532 kts | 96° |
| 2026-05-05 20:53 | 41.41814 | -80.08297 | 38858 ft | 531 kts | 96° |
| 2026-05-05 20:54 | 41.40875 | -79.98551 | 38859 ft | 530 kts | 96° |
| 2026-05-05 20:54 | 41.39934 | -79.88806 | 38863 ft | 530 kts | 96° |
| 2026-05-05 20:55 | 41.38989 | -79.79158 | 38859 ft | 529 kts | 96° |
| 2026-05-05 20:55 | 41.38028 | -79.69454 | 38852 ft | 527 kts | 96° |
| 2026-05-05 20:56 | 41.37062 | -79.59787 | 38845 ft | 527 kts | 96° |
| 2026-05-05 20:56 | 41.36089 | -79.50137 | 38836 ft | 526 kts | 96° |
| 2026-05-05 20:57 | 41.35117 | -79.40573 | 38826 ft | 525 kts | 96° |
| 2026-05-05 20:57 | 41.34131 | -79.30950 | 38818 ft | 524 kts | 96° |
| 2026-05-05 20:58 | 41.33137 | -79.21340 | 38841 ft | 527 kts | 96° |
| 2026-05-05 20:58 | 41.32129 | -79.11673 | 38842 ft | 527 kts | 96° |
| 2026-05-05 20:59 | 41.31115 | -79.02032 | 38844 ft | 526 kts | 96° |
| 2026-05-05 20:59 | 41.30099 | -78.92461 | 38847 ft | 526 kts | 96° |
| 2026-05-05 21:00 | 41.29073 | -78.82855 | 38843 ft | 525 kts | 96° |
| 2026-05-05 21:00 | 41.28033 | -78.73221 | 38843 ft | 526 kts | 96° |
| 2026-05-05 21:01 | 41.26988 | -78.63609 | 38840 ft | 525 kts | 97° |
| 2026-05-05 21:01 | 41.25944 | -78.54081 | 38840 ft | 524 kts | 97° |
| 2026-05-05 21:02 | 41.24888 | -78.44515 | 38845 ft | 523 kts | 97° |
| 2026-05-05 21:02 | 41.23826 | -78.34962 | 38845 ft | 523 kts | 97° |
| 2026-05-05 21:03 | 41.22757 | -78.25421 | 38840 ft | 522 kts | 97° |
| 2026-05-05 21:03 | 41.21688 | -78.15958 | 38832 ft | 521 kts | 97° |
| 2026-05-05 21:04 | 41.20557 | -78.06458 | 38832 ft | 520 kts | 98° |
| 2026-05-05 21:04 | 41.19364 | -77.96981 | 38816 ft | 520 kts | 98° |
| 2026-05-05 21:05 | 41.18175 | -77.87514 | 38809 ft | 519 kts | 98° |
| 2026-05-05 21:05 | 41.16987 | -77.78068 | 38808 ft | 519 kts | 98° |
| 2026-05-05 21:06 | 41.15799 | -77.68690 | 38796 ft | 518 kts | 98° |
| 2026-05-05 21:06 | 41.14599 | -77.59280 | 38800 ft | 516 kts | 98° |
| 2026-05-05 21:07 | 41.13397 | -77.49914 | 38775 ft | 514 kts | 98° |
| 2026-05-05 21:07 | 41.12194 | -77.40599 | 38780 ft | 512 kts | 98° |
| 2026-05-05 21:08 | 41.10987 | -77.31315 | 38479 ft | 515 kts | 98° |
| 2026-05-05 21:08 | 41.10375 | -77.26637 | 38200 ft | 514 kts | 98° |
| 2026-05-05 21:08 | 41.09765 | -77.21979 | 37912 ft | 513 kts | 98° |
| 2026-05-05 21:09 | 41.09153 | -77.17327 | 37631 ft | 512 kts | 98° |
| 2026-05-05 21:09 | 41.08540 | -77.12679 | 37343 ft | 513 kts | 98° |
| 2026-05-05 21:09 | 41.07923 | -77.08016 | 37076 ft | 513 kts | 99° |
| 2026-05-05 21:09 | 41.07306 | -77.03379 | 36732 ft | 512 kts | 99° |
| 2026-05-05 21:10 | 41.06688 | -76.98730 | 36179 ft | 511 kts | 99° |
| 2026-05-05 21:10 | 41.06067 | -76.94080 | 35434 ft | 513 kts | 99° |
| 2026-05-05 21:10 | 41.05442 | -76.89412 | 34574 ft | 517 kts | 100° |
| 2026-05-05 21:10 | 41.04817 | -76.84757 | 33670 ft | 522 kts | 100° |
| 2026-05-05 21:11 | 41.04179 | -76.80023 | 32719 ft | 524 kts | 100° |
| 2026-05-05 21:11 | 41.03537 | -76.75268 | 31905 ft | 523 kts | 101° |
| 2026-05-05 21:11 | 41.02901 | -76.70581 | 31654 ft | 510 kts | 101° |
| 2026-05-05 21:11 | 41.02282 | -76.66026 | 31491 ft | 495 kts | 101° |
| 2026-05-05 21:12 | 41.01443 | -76.61682 | 31336 ft | 478 kts | 113° |
| 2026-05-05 21:12 | 40.99996 | -76.57833 | 31193 ft | 459 kts | 128° |
| 2026-05-05 21:12 | 40.98008 | -76.54671 | 31034 ft | 437 kts | 143° |
| 2026-05-05 21:12 | 40.95643 | -76.52374 | 30665 ft | 420 kts | 159° |
| 2026-05-05 21:13 | 40.92979 | -76.50987 | 30048 ft | 407 kts | 174° |
| 2026-05-05 21:13 | 40.90202 | -76.50622 | 29289 ft | 396 kts | 190° |
| 2026-05-05 21:13 | 40.87540 | -76.51279 | 28528 ft | 386 kts | 205° |
| 2026-05-05 21:13 | 40.85191 | -76.52879 | 27785 ft | 377 kts | 221° |
| 2026-05-05 21:14 | 40.83340 | -76.55267 | 27055 ft | 371 kts | 237° |
| 2026-05-05 21:14 | 40.82128 | -76.58249 | 26340 ft | 368 kts | 252° |
| 2026-05-05 21:14 | 40.81660 | -76.61548 | 25601 ft | 368 kts | 269° |
| 2026-05-05 21:14 | 40.81981 | -76.64907 | 24926 ft | 371 kts | 285° |
| 2026-05-05 21:15 | 40.82952 | -76.68028 | 24273 ft | 374 kts | 293° |
| 2026-05-05 21:15 | 40.84122 | -76.71107 | 23631 ft | 377 kts | 295° |
| 2026-05-05 21:15 | 40.85443 | -76.74101 | 22927 ft | 380 kts | 301° |
| 2026-05-05 21:15 | 40.87128 | -76.76814 | 22173 ft | 385 kts | 313° |
| 2026-05-05 21:16 | 40.89291 | -76.78903 | 21626 ft | 388 kts | 329° |
| 2026-05-05 21:16 | 40.91808 | -76.80079 | 21470 ft | 382 kts | 345° |
| 2026-05-05 21:16 | 40.94453 | -76.80244 | 21325 ft | 377 kts | 2° |
| 2026-05-05 21:16 | 40.96970 | -76.79396 | 21192 ft | 372 kts | 19° |
| 2026-05-05 21:17 | 40.99167 | -76.77650 | 21069 ft | 366 kts | 37° |
| 2026-05-05 21:17 | 41.00848 | -76.75241 | 20939 ft | 359 kts | 54° |
| 2026-05-05 21:17 | 41.01959 | -76.72345 | 20818 ft | 348 kts | 71° |
| 2026-05-05 21:17 | 41.02442 | -76.69254 | 20550 ft | 342 kts | 88° |
| 2026-05-05 21:18 | 41.02294 | -76.66140 | 20200 ft | 335 kts | 105° |
| 2026-05-05 21:18 | 41.01668 | -76.63180 | 19871 ft | 345 kts | 111° |
| 2026-05-05 21:18 | 41.00855 | -76.60000 | 19548 ft | 382 kts | 112° |
| 2026-05-05 21:18 | 40.99958 | -76.56528 | 19336 ft | 412 kts | 111° |
| 2026-05-05 21:19 | 40.99044 | -76.52876 | 19088 ft | 420 kts | 111° |
| 2026-05-05 21:19 | 40.98163 | -76.49252 | 18872 ft | 418 kts | 110° |
| 2026-05-05 21:19 | 40.97283 | -76.45596 | 18512 ft | 417 kts | 110° |
| 2026-05-05 21:19 | 40.96406 | -76.41942 | 18044 ft | 415 kts | 110° |
| 2026-05-05 21:20 | 40.95545 | -76.38348 | 17863 ft | 409 kts | 110° |
| 2026-05-05 21:20 | 40.94679 | -76.34755 | 17808 ft | 410 kts | 110° |
| 2026-05-05 21:20 | 40.93811 | -76.31169 | 17569 ft | 409 kts | 110° |
| 2026-05-05 21:20 | 40.92945 | -76.27596 | 17085 ft | 408 kts | 111° |
| 2026-05-05 21:21 | 40.92081 | -76.24032 | 16542 ft | 405 kts | 111° |
| 2026-05-05 21:21 | 40.91225 | -76.20503 | 15980 ft | 403 kts | 111° |
| 2026-05-05 21:21 | 40.90379 | -76.17025 | 15417 ft | 402 kts | 111° |
| 2026-05-05 21:21 | 40.89522 | -76.13510 | 14894 ft | 400 kts | 111° |
| 2026-05-05 21:22 | 40.88678 | -76.10052 | 14358 ft | 398 kts | 111° |
| 2026-05-05 21:22 | 40.87825 | -76.06563 | 13827 ft | 396 kts | 111° |
| 2026-05-05 21:22 | 40.86980 | -76.03112 | 13298 ft | 393 kts | 111° |
| 2026-05-05 21:22 | 40.86144 | -75.99705 | 12841 ft | 387 kts | 111° |
| 2026-05-05 21:23 | 40.85318 | -75.96341 | 12339 ft | 383 kts | 111° |
| 2026-05-05 21:23 | 40.84512 | -75.93060 | 11854 ft | 379 kts | 111° |
| 2026-05-05 21:23 | 40.83701 | -75.89772 | 11380 ft | 374 kts | 111° |
| 2026-05-05 21:23 | 40.82901 | -75.86529 | 10942 ft | 370 kts | 111° |
| 2026-05-05 21:24 | 40.82108 | -75.83321 | 10493 ft | 366 kts | 112° |
| 2026-05-05 21:24 | 40.81323 | -75.80145 | 10156 ft | 359 kts | 112° |
| 2026-05-05 21:24 | 40.80565 | -75.77080 | 10033 ft | 344 kts | 112° |
| 2026-05-05 21:24 | 40.79841 | -75.74149 | 10011 ft | 327 kts | 112° |
| 2026-05-05 21:25 | 40.79152 | -75.71366 | 9991 ft | 314 kts | 112° |
| 2026-05-05 21:25 | 40.78467 | -75.68632 | 9995 ft | 320 kts | 112° |
| 2026-05-05 21:25 | 40.77770 | -75.65852 | 9996 ft | 320 kts | 112° |
| 2026-05-05 21:25 | 40.77075 | -75.63070 | 9996 ft | 318 kts | 112° |
| 2026-05-05 21:26 | 40.76381 | -75.60296 | 10001 ft | 320 kts | 112° |
| 2026-05-05 21:26 | 40.75683 | -75.57507 | 9999 ft | 319 kts | 112° |
| 2026-05-05 21:26 | 40.74987 | -75.54726 | 10003 ft | 320 kts | 112° |
| 2026-05-05 21:26 | 40.74293 | -75.51954 | 10003 ft | 319 kts | 112° |
| 2026-05-05 21:27 | 40.73596 | -75.49174 | 10004 ft | 318 kts | 112° |
| 2026-05-05 21:27 | 40.72900 | -75.46410 | 10003 ft | 319 kts | 112° |
| 2026-05-05 21:27 | 40.72290 | -75.43621 | 10006 ft | 321 kts | 108° |
| 2026-05-05 21:27 | 40.71732 | -75.40777 | 10005 ft | 320 kts | 108° |
| 2026-05-05 21:28 | 40.71172 | -75.37940 | 10004 ft | 320 kts | 108° |
| 2026-05-05 21:28 | 40.70607 | -75.35096 | 10006 ft | 321 kts | 108° |
| 2026-05-05 21:28 | 40.70042 | -75.32253 | 10005 ft | 320 kts | 108° |
| 2026-05-05 21:28 | 40.69477 | -75.29416 | 10003 ft | 320 kts | 108° |
| 2026-05-05 21:29 | 40.68910 | -75.26581 | 10006 ft | 320 kts | 108° |
| 2026-05-05 21:29 | 40.68343 | -75.23747 | 10002 ft | 320 kts | 108° |
| 2026-05-05 21:29 | 40.67777 | -75.20918 | 10003 ft | 320 kts | 108° |
| 2026-05-05 21:29 | 40.67216 | -75.18122 | 10003 ft | 320 kts | 108° |
| 2026-05-05 21:30 | 40.66493 | -75.15377 | 10004 ft | 316 kts | 121° |
| 2026-05-05 21:30 | 40.65274 | -75.13005 | 10000 ft | 309 kts | 137° |
| 2026-05-05 21:30 | 40.63807 | -75.10944 | 9999 ft | 307 kts | 138° |
| 2026-05-05 21:30 | 40.62348 | -75.08885 | 9998 ft | 308 kts | 138° |
| 2026-05-05 21:31 | 40.60891 | -75.06813 | 10008 ft | 309 kts | 138° |
| 2026-05-05 21:31 | 40.59925 | -75.05438 | 10009 ft | 311 kts | 138° |
| 2026-05-05 21:31 | 40.57980 | -75.02656 | 10004 ft | 309 kts | 136° |
| 2026-05-05 21:31 | 40.56735 | -75.00332 | 9887 ft | 314 kts | 123° |
| 2026-05-05 21:32 | 40.56109 | -74.98605 | 9606 ft | 318 kts | 115° |
| 2026-05-05 21:32 | 40.55320 | -74.95882 | 9194 ft | 319 kts | 115° |
| 2026-05-05 21:32 | 40.54287 | -74.92342 | 9058 ft | 313 kts | 115° |
| 2026-05-05 21:32 | 40.53494 | -74.89666 | 8946 ft | 314 kts | 115° |
| 2026-05-05 21:33 | 40.52959 | -74.87868 | 8894 ft | 312 kts | 115° |
| 2026-05-05 21:33 | 40.51913 | -74.84365 | 8762 ft | 310 kts | 116° |
| 2026-05-05 21:33 | 40.51124 | -74.81732 | 8666 ft | 310 kts | 116° |
| 2026-05-05 21:33 | 40.50602 | -74.79991 | 8614 ft | 310 kts | 116° |
| 2026-05-05 21:34 | 40.49544 | -74.76465 | 8480 ft | 310 kts | 116° |
| 2026-05-05 21:34 | 40.49022 | -74.74728 | 8421 ft | 309 kts | 116° |
| 2026-05-05 21:34 | 40.48230 | -74.72094 | 8326 ft | 308 kts | 116° |
| 2026-05-05 21:34 | 40.47564 | -74.69424 | 8179 ft | 311 kts | 104° |
| 2026-05-05 21:35 | 40.47730 | -74.65663 | 8009 ft | 317 kts | 71° |
| 2026-05-05 21:35 | 40.48747 | -74.63106 | 7900 ft | 317 kts | 57° |
| 2026-05-05 21:35 | 40.49561 | -74.61515 | 7820 ft | 317 kts | 54° |
| 2026-05-05 21:35 | 40.51278 | -74.58379 | 7646 ft | 316 kts | 53° |
| 2026-05-05 21:36 | 40.52146 | -74.56801 | 7568 ft | 315 kts | 53° |
| 2026-05-05 21:36 | 40.53400 | -74.54485 | 7442 ft | 314 kts | 54° |
| 2026-05-05 21:36 | 40.54652 | -74.52132 | 7319 ft | 314 kts | 54° |
| 2026-05-05 21:36 | 40.55883 | -74.49794 | 7200 ft | 314 kts | 54° |
| 2026-05-05 21:37 | 40.57122 | -74.47424 | 7081 ft | 313 kts | 55° |
| 2026-05-05 21:37 | 40.58353 | -74.45065 | 6977 ft | 313 kts | 55° |
| 2026-05-05 21:37 | 40.59580 | -74.42710 | 6851 ft | 312 kts | 56° |
| 2026-05-05 21:37 | 40.60807 | -74.40355 | 6740 ft | 311 kts | 55° |
| 2026-05-05 21:38 | 40.62029 | -74.38011 | 6611 ft | 311 kts | 56° |
| 2026-05-05 21:38 | 40.63255 | -74.35659 | 6496 ft | 311 kts | 56° |
| 2026-05-05 21:38 | 40.64422 | -74.33411 | 6380 ft | 310 kts | 56° |
| 2026-05-05 21:38 | 40.65643 | -74.31061 | 6258 ft | 309 kts | 56° |
| 2026-05-05 21:39 | 40.66851 | -74.28734 | 6141 ft | 309 kts | 56° |
| 2026-05-05 21:39 | 40.68064 | -74.26394 | 6003 ft | 309 kts | 56° |
| 2026-05-05 21:39 | 40.69251 | -74.24102 | 5879 ft | 306 kts | 56° |
| 2026-05-05 21:39 | 40.70453 | -74.21781 | 5756 ft | 307 kts | 56° |
| 2026-05-05 21:40 | 40.71657 | -74.19455 | 5626 ft | 306 kts | 56° |
| 2026-05-05 21:40 | 40.72857 | -74.17136 | 5505 ft | 307 kts | 56° |
| 2026-05-05 21:40 | 40.74062 | -74.14804 | 5381 ft | 306 kts | 56° |
| 2026-05-05 21:40 | 40.75257 | -74.12491 | 5252 ft | 306 kts | 56° |
| 2026-05-05 21:41 | 40.76393 | -74.10291 | 5136 ft | 307 kts | 56° |
| 2026-05-05 21:41 | 40.77584 | -74.07979 | 4998 ft | 306 kts | 56° |
| 2026-05-05 21:41 | 40.78808 | -74.05683 | 4871 ft | 307 kts | 50° |
| 2026-05-05 21:41 | 40.80363 | -74.03773 | 4748 ft | 302 kts | 32° |
| 2026-05-05 21:42 | 40.82138 | -74.02303 | 4631 ft | 303 kts | 29° |
| 2026-05-05 21:42 | 40.83932 | -74.00826 | 4505 ft | 304 kts | 29° |
| 2026-05-05 21:42 | 40.85705 | -73.99348 | 4389 ft | 301 kts | 30° |
| 2026-05-05 21:42 | 40.87459 | -73.97877 | 4258 ft | 301 kts | 30° |
| 2026-05-05 21:43 | 40.89236 | -73.96381 | 4133 ft | 300 kts | 30° |
| 2026-05-05 21:43 | 40.90982 | -73.94914 | 4016 ft | 301 kts | 30° |
| 2026-05-05 21:43 | 40.92736 | -73.93440 | 3893 ft | 297 kts | 30° |
| 2026-05-05 21:43 | 40.94485 | -73.91967 | 3765 ft | 295 kts | 30° |
| 2026-05-05 21:44 | 40.96211 | -73.90515 | 3651 ft | 296 kts | 30° |
| 2026-05-05 21:44 | 40.97965 | -73.89039 | 3552 ft | 299 kts | 30° |
| 2026-05-05 21:44 | 40.99699 | -73.87577 | 3444 ft | 295 kts | 30° |
| 2026-05-05 21:44 | 41.01438 | -73.86113 | 3313 ft | 295 kts | 30° |
| 2026-05-05 21:45 | 41.03148 | -73.84671 | 3189 ft | 292 kts | 31° |
| 2026-05-05 21:45 | 41.04844 | -73.83147 | 3118 ft | 295 kts | 41° |
| 2026-05-05 21:45 | 41.06015 | -73.81042 | 3072 ft | 285 kts | 69° |
| 2026-05-05 21:45 | 41.06363 | -73.78564 | 3020 ft | 264 kts | 100° |
| 2026-05-05 21:46 | 41.05853 | -73.76391 | 3014 ft | 238 kts | 129° |
| 2026-05-05 21:46 | 41.04898 | -73.74689 | 3009 ft | 225 kts | 139° |
| 2026-05-05 21:46 | 41.03831 | -73.73133 | 3011 ft | 224 kts | 149° |
| 2026-05-05 21:46 | 41.02504 | -73.72260 | 3016 ft | 210 kts | 175° |
| 2026-05-05 21:47 | 41.01103 | -73.72278 | 3001 ft | 193 kts | 199° |
| 2026-05-05 21:47 | 40.99849 | -73.72698 | 3013 ft | 179 kts | 199° |
| 2026-05-05 21:47 | 40.98689 | -73.73045 | 3011 ft | 163 kts | 198° |
| 2026-05-05 21:47 | 40.97657 | -73.73338 | 3009 ft | 145 kts | 199° |
| 2026-05-05 21:48 | 40.96724 | -73.73600 | 3007 ft | 128 kts | 199° |
| 2026-05-05 21:48 | 40.95846 | -73.73856 | 3017 ft | 131 kts | 200° |
| 2026-05-05 21:48 | 40.94985 | -73.74116 | 3014 ft | 127 kts | 199° |
| 2026-05-05 21:48 | 40.94083 | -73.74429 | 3106 ft | 142 kts | 205° |
| 2026-05-05 21:49 | 40.93159 | -73.74973 | 3111 ft | 147 kts | 213° |
| 2026-05-05 21:49 | 40.92298 | -73.75647 | 3045 ft | 142 kts | 216° |
| 2026-05-05 21:49 | 40.91473 | -73.76335 | 2906 ft | 143 kts | 216° |
| 2026-05-05 21:49 | 40.90632 | -73.77033 | 2730 ft | 138 kts | 217° |
| 2026-05-05 21:50 | 40.89813 | -73.77717 | 2553 ft | 142 kts | 216° |
| 2026-05-05 21:50 | 40.88990 | -73.78401 | 2376 ft | 139 kts | 216° |
| 2026-05-05 21:50 | 40.88154 | -73.79091 | 2196 ft | 140 kts | 214° |
| 2026-05-05 21:50 | 40.87331 | -73.79780 | 2012 ft | 143 kts | 215° |
| 2026-05-05 21:51 | 40.86500 | -73.80469 | 1828 ft | 138 kts | 214° |
| 2026-05-05 21:51 | 40.85681 | -73.81148 | 1656 ft | 137 kts | 213° |
| 2026-05-05 21:51 | 40.84941 | -73.81763 | 1478 ft | 119 kts | 213° |
| 2026-05-05 21:51 | 40.84261 | -73.82328 | 1320 ft | 116 kts | 212° |
| 2026-05-05 21:52 | 40.82896 | -73.83460 | 1016 ft | 117 kts | 213° |
| 2026-05-05 21:52 | 40.82186 | -73.84065 | 845 ft | 121 kts | 210° |
| 2026-05-05 21:52 | 40.81476 | -73.84686 | 711 ft | 123 kts | 209° |
| 2026-05-05 21:53 | 40.80738 | -73.85258 | 565 ft | 122 kts | 202° |
| 2026-05-05 21:53 | 40.80012 | -73.85874 | 371 ft | 126 kts | 208° |
| 2026-05-05 21:53 | 40.79293 | -73.86495 | 308 ft | 125 kts | 197° |
| 2026-05-05 21:53 | 40.78489 | -73.87133 | 322 ft | 146 kts | 208° |
| 2026-05-05 21:54 | 40.77607 | -73.87898 | 802 ft | 160 kts | 210° |
| 2026-05-05 21:54 | 40.76597 | -73.88791 | 907 ft | 201 kts | 217° |
| 2026-05-05 21:54 | 40.75449 | -73.89805 | 1653 ft | 197 kts | 211° |
| 2026-05-05 21:54 | 40.74248 | -73.90723 | 2131 ft | 194 kts | 214° |
| 2026-05-05 21:55 | 40.73167 | -73.91695 | 2229 ft | 186 kts | 221° |
| 2026-05-05 21:55 | 40.72159 | -73.92694 | 2739 ft | 188 kts | 219° |
| 2026-05-05 21:55 | 40.71153 | -73.93779 | 2961 ft | 185 kts | 222° |
| 2026-05-05 21:55 | 40.70283 | -73.95043 | 2735 ft | 190 kts | 236° |
| 2026-05-05 21:56 | 40.69558 | -73.96440 | 2795 ft | 173 kts | 231° |
| 2026-05-05 21:56 | 40.68722 | -73.97638 | 3344 ft | 189 kts | 226° |
| 2026-05-05 21:56 | 40.67770 | -73.98857 | 3560 ft | 186 kts | 223° |
| 2026-05-05 21:56 | 40.66698 | -73.99814 | 3740 ft | 192 kts | 208° |
| 2026-05-05 21:57 | 40.65389 | -74.00288 | 3959 ft | 198 kts | 190° |
| 2026-05-05 21:57 | 40.64013 | -74.00059 | 4187 ft | 210 kts | 168° |
| 2026-05-05 21:57 | 40.62723 | -73.99054 | 4242 ft | 221 kts | 147° |
| 2026-05-05 21:57 | 40.61598 | -73.97633 | 4406 ft | 226 kts | 142° |
| 2026-05-05 21:58 | 40.60555 | -73.96063 | 4551 ft | 231 kts | 134° |
| 2026-05-05 21:58 | 40.59769 | -73.94202 | 4978 ft | 238 kts | 118° |
| 2026-05-05 21:58 | 40.59341 | -73.92060 | 5478 ft | 249 kts | 98° |
| 2026-05-05 21:58 | 40.59727 | -73.89823 | 5952 ft | 260 kts | 64° |
| 2026-05-05 21:59 | 40.60608 | -73.87723 | 5927 ft | 264 kts | 57° |
| 2026-05-05 21:59 | 40.61727 | -73.85933 | 5417 ft | 273 kts | 44° |
| 2026-05-05 21:59 | 40.63097 | -73.84172 | 4979 ft | 277 kts | 42° |
| 2026-05-05 21:59 | 40.64478 | -73.82465 | 4964 ft | 263 kts | 41° |
| 2026-05-05 22:00 | 40.65755 | -73.80855 | 5117 ft | 255 kts | 43° |
| 2026-05-05 22:00 | 40.67049 | -73.79217 | 5272 ft | 257 kts | 41° |
| 2026-05-05 22:00 | 40.68375 | -73.77644 | 5430 ft | 256 kts | 39° |
| 2026-05-05 22:00 | 40.69750 | -73.76140 | 5582 ft | 256 kts | 37° |
| 2026-05-05 22:01 | 40.71147 | -73.74659 | 5633 ft | 259 kts | 34° |
| 2026-05-05 22:01 | 40.72608 | -73.73272 | 5431 ft | 259 kts | 32° |
| 2026-05-05 22:01 | 40.74073 | -73.71906 | 5192 ft | 257 kts | 32° |
| 2026-05-05 22:01 | 40.75536 | -73.70542 | 4892 ft | 259 kts | 32° |
| 2026-05-05 22:02 | 40.77010 | -73.69185 | 4431 ft | 265 kts | 32° |
| 2026-05-05 22:02 | 40.78529 | -73.67784 | 3988 ft | 269 kts | 34° |
| 2026-05-05 22:02 | 40.79905 | -73.66079 | 3544 ft | 273 kts | 47° |
| 2026-05-05 22:02 | 40.81177 | -73.64235 | 3281 ft | 267 kts | 47° |
| 2026-05-05 22:03 | 40.82396 | -73.62442 | 3184 ft | 257 kts | 47° |
| 2026-05-05 22:03 | 40.83578 | -73.60718 | 3088 ft | 254 kts | 43° |
| 2026-05-05 22:03 | 40.84970 | -73.59273 | 3061 ft | 256 kts | 32° |
| 2026-05-05 22:03 | 40.86430 | -73.57924 | 3069 ft | 255 kts | 32° |
| 2026-05-05 22:04 | 40.87919 | -73.56753 | 3056 ft | 252 kts | 19° |
| 2026-05-05 22:04 | 40.89557 | -73.55940 | 3044 ft | 251 kts | 6° |
| 2026-05-05 22:04 | 40.91217 | -73.56001 | 3024 ft | 231 kts | 333° |
| 2026-05-05 22:04 | 40.92490 | -73.57111 | 3026 ft | 215 kts | 300° |
| 2026-05-05 22:05 | 40.93184 | -73.58769 | 3016 ft | 198 kts | 287° |
| 2026-05-05 22:05 | 40.93753 | -73.60357 | 3022 ft | 187 kts | 287° |
| 2026-05-05 22:05 | 40.94316 | -73.61934 | 3023 ft | 190 kts | 287° |
| 2026-05-05 22:05 | 40.94877 | -73.63512 | 3029 ft | 189 kts | 287° |
| 2026-05-05 22:06 | 40.95439 | -73.65094 | 3022 ft | 190 kts | 287° |
| 2026-05-05 22:06 | 40.95989 | -73.66651 | 3025 ft | 190 kts | 287° |
| 2026-05-05 22:06 | 40.96587 | -73.68226 | 3027 ft | 194 kts | 293° |
| 2026-05-05 22:06 | 40.97029 | -73.69837 | 3045 ft | 185 kts | 275° |
| 2026-05-05 22:07 | 40.97287 | -73.71538 | 3021 ft | 187 kts | 273° |
| 2026-05-05 22:07 | 40.97504 | -73.73226 | 3020 ft | 185 kts | 273° |
| 2026-05-05 22:07 | 40.97720 | -73.74906 | 2990 ft | 185 kts | 275° |
| 2026-05-05 22:07 | 40.98104 | -73.76546 | 2868 ft | 190 kts | 284° |
| 2026-05-05 22:08 | 40.98702 | -73.78127 | 2827 ft | 194 kts | 291° |
| 2026-05-05 22:08 | 40.99368 | -73.79671 | 2829 ft | 194 kts | 291° |
| 2026-05-05 22:08 | 41.00027 | -73.81209 | 2817 ft | 194 kts | 291° |
| 2026-05-05 22:08 | 41.00695 | -73.82764 | 2820 ft | 194 kts | 291° |
| 2026-05-05 22:09 | 41.01360 | -73.84315 | 2830 ft | 194 kts | 291° |
| 2026-05-05 22:09 | 41.02028 | -73.85877 | 2812 ft | 194 kts | 291° |
| 2026-05-05 22:09 | 41.02693 | -73.87434 | 2817 ft | 194 kts | 291° |
| 2026-05-05 22:09 | 41.03231 | -73.89041 | 2823 ft | 188 kts | 278° |
| 2026-05-05 22:10 | 41.03567 | -73.90717 | 2815 ft | 189 kts | 277° |
| 2026-05-05 22:10 | 41.03880 | -73.92405 | 2808 ft | 188 kts | 277° |
| 2026-05-05 22:10 | 41.04181 | -73.94092 | 2814 ft | 188 kts | 277° |
| 2026-05-05 22:10 | 41.04185 | -73.95753 | 2815 ft | 179 kts | 252° |
| 2026-05-05 22:11 | 41.03589 | -73.97135 | 2796 ft | 178 kts | 219° |
| 2026-05-05 22:11 | 41.02486 | -73.97897 | 2784 ft | 179 kts | 206° |
| 2026-05-05 22:11 | 41.01317 | -73.98533 | 2791 ft | 185 kts | 205° |
| 2026-05-05 22:11 | 41.00147 | -73.99160 | 2790 ft | 178 kts | 205° |
| 2026-05-05 22:12 | 40.99000 | -73.99779 | 2795 ft | 179 kts | 205° |
| 2026-05-05 22:12 | 40.97837 | -74.00414 | 2794 ft | 181 kts | 205° |
| 2026-05-05 22:12 | 40.96670 | -74.01032 | 2787 ft | 180 kts | 205° |
| 2026-05-05 22:12 | 40.95494 | -74.01613 | 2794 ft | 184 kts | 199° |
| 2026-05-05 22:13 | 40.94218 | -74.01857 | 2797 ft | 187 kts | 188° |
| 2026-05-05 22:13 | 40.92931 | -74.01929 | 2793 ft | 186 kts | 187° |
| 2026-05-05 22:13 | 40.91632 | -74.01981 | 2792 ft | 187 kts | 187° |
| 2026-05-05 22:13 | 40.90356 | -74.02032 | 2815 ft | 178 kts | 187° |
| 2026-05-05 22:14 | 40.89179 | -74.02077 | 2791 ft | 159 kts | 187° |
| 2026-05-05 22:14 | 40.88124 | -74.02092 | 2794 ft | 149 kts | 187° |
| 2026-05-05 22:14 | 40.87065 | -74.02109 | 2796 ft | 151 kts | 187° |
| 2026-05-05 22:14 | 40.86007 | -74.02102 | 2753 ft | 158 kts | 180° |
| 2026-05-05 22:15 | 40.84966 | -74.01525 | 2469 ft | 171 kts | 148° |
| 2026-05-05 22:15 | 40.84171 | -74.00350 | 2245 ft | 177 kts | 134° |
| 2026-05-05 22:15 | 40.83511 | -73.98968 | 1974 ft | 177 kts | 129° |
| 2026-05-05 22:15 | 40.82890 | -73.97630 | 1734 ft | 165 kts | 132° |
| 2026-05-05 22:16 | 40.82308 | -73.96402 | 1526 ft | 149 kts | 133° |
| 2026-05-05 22:16 | 40.81779 | -73.95300 | 1336 ft | 136 kts | 131° |
| 2026-05-05 22:16 | 40.81299 | -73.94289 | 1167 ft | 128 kts | 131° |
| 2026-05-05 22:16 | 40.80817 | -73.93281 | 987 ft | 128 kts | 130° |
| 2026-05-05 22:17 | 40.80338 | -73.92282 | 827 ft | 131 kts | 130° |
| 2026-05-05 22:17 | 40.79870 | -73.91287 | 659 ft | 122 kts | 128° |
| 2026-05-05 22:17 | 40.79429 | -73.90369 | 507 ft | 118 kts | 127° |
| 2026-05-05 22:17 | 40.79003 | -73.89468 | 352 ft | 114 kts | 127° |
| 2026-05-05 22:18 | 40.78574 | -73.88585 | 194 ft | 116 kts | 127° |
| 2026-05-05 22:18 | 40.78173 | -73.87659 | 58 ft | 117 kts | 130° |
| 2026-05-05 22:18 | 40.77787 | -73.86625 | 559 ft | 121 kts | 118° |
| 2026-05-05 22:18 | 40.77427 | -73.85654 | 1323 ft | 121 kts | 130° |
| 2026-05-05 22:19 | 40.76956 | -73.84547 | 1722 ft | 164 kts | 131° |
| 2026-05-05 22:19 | 40.76234 | -73.83102 | 2062 ft | 208 kts | 133° |
| 2026-05-05 22:19 | 40.75355 | -73.81489 | 2772 ft | 223 kts | 133° |
| 2026-05-05 22:19 | 40.74429 | -73.79830 | 3080 ft | 227 kts | 130° |
| 2026-05-05 22:20 | 40.73936 | -73.77874 | 3010 ft | 235 kts | 96° |
| 2026-05-05 22:20 | 40.74300 | -73.75751 | 3021 ft | 244 kts | 63° |
| 2026-05-05 22:20 | 40.75372 | -73.74046 | 3010 ft | 244 kts | 44° |
| 2026-05-05 22:20 | 40.76594 | -73.72469 | 3018 ft | 244 kts | 43° |
| 2026-05-05 22:21 | 40.77794 | -73.70918 | 3019 ft | 242 kts | 43° |
| 2026-05-05 22:21 | 40.79128 | -73.69586 | 3022 ft | 240 kts | 19° |
| 2026-05-05 22:21 | 40.80722 | -73.69284 | 3021 ft | 227 kts | 345° |
| 2026-05-05 22:21 | 40.82099 | -73.70057 | 3022 ft | 215 kts | 319° |
| 2026-05-05 22:22 | 40.83285 | -73.71250 | 3013 ft | 207 kts | 303° |
| 2026-05-05 22:22 | 40.84017 | -73.72843 | 3008 ft | 202 kts | 291° |
| 2026-05-05 22:22 | 40.84666 | -73.74456 | 3012 ft | 201 kts | 291° |
| 2026-05-05 22:22 | 40.85321 | -73.76090 | 3006 ft | 201 kts | 291° |
| 2026-05-05 22:23 | 40.86040 | -73.77672 | 2860 ft | 202 kts | 299° |
| 2026-05-05 22:23 | 40.86915 | -73.79151 | 2819 ft | 205 kts | 301° |
| 2026-05-05 22:23 | 40.87753 | -73.80655 | 2820 ft | 201 kts | 296° |
| 2026-05-05 22:23 | 40.88487 | -73.82226 | 2816 ft | 202 kts | 294° |
| 2026-05-05 22:24 | 40.89213 | -73.83804 | 2816 ft | 200 kts | 294° |
| 2026-05-05 22:24 | 40.89936 | -73.85380 | 2814 ft | 201 kts | 294° |
| 2026-05-05 22:24 | 40.90652 | -73.86941 | 2810 ft | 201 kts | 294° |
| 2026-05-05 22:24 | 40.91383 | -73.88551 | 2815 ft | 211 kts | 294° |
| 2026-05-05 22:25 | 40.92154 | -73.90278 | 2794 ft | 220 kts | 294° |
| 2026-05-05 22:25 | 40.92904 | -73.92027 | 2799 ft | 217 kts | 291° |
| 2026-05-05 22:25 | 40.93596 | -73.93797 | 2801 ft | 217 kts | 291° |
| 2026-05-05 22:25 | 40.94022 | -73.95656 | 2799 ft | 209 kts | 265° |
| 2026-05-05 22:26 | 40.93618 | -73.97442 | 2671 ft | 204 kts | 234° |
| 2026-05-05 22:26 | 40.92515 | -73.98620 | 2333 ft | 208 kts | 208° |
| 2026-05-05 22:26 | 40.91222 | -73.99407 | 2080 ft | 208 kts | 207° |
| 2026-05-05 22:26 | 40.89906 | -74.00202 | 1913 ft | 203 kts | 207° |
| 2026-05-05 22:27 | 40.88611 | -74.00986 | 1907 ft | 205 kts | 207° |
| 2026-05-05 22:27 | 40.87341 | -74.01677 | 1886 ft | 192 kts | 193° |
| 2026-05-05 22:27 | 40.86002 | -74.01740 | 1886 ft | 194 kts | 175° |
| 2026-05-05 22:27 | 40.84790 | -74.01016 | 1892 ft | 192 kts | 147° |
| 2026-05-05 22:28 | 40.83899 | -73.99727 | 1898 ft | 194 kts | 132° |
| 2026-05-05 22:28 | 40.83160 | -73.98242 | 1903 ft | 187 kts | 127° |
| 2026-05-05 22:28 | 40.82488 | -73.96792 | 1617 ft | 185 kts | 129° |
| 2026-05-05 22:28 | 40.81813 | -73.95374 | 1360 ft | 178 kts | 129° |
| 2026-05-05 22:29 | 40.81202 | -73.94082 | 1135 ft | 158 kts | 129° |
| 2026-05-05 22:29 | 40.80654 | -73.92925 | 918 ft | 137 kts | 131° |
| 2026-05-05 22:29 | 40.80171 | -73.91919 | 761 ft | 128 kts | 127° |
| 2026-05-05 22:29 | 40.79702 | -73.90937 | 615 ft | 123 kts | 127° |
| 2026-05-05 22:30 | 40.79262 | -73.90014 | 426 ft | 115 kts | 127° |
| 2026-05-05 22:30 | 40.78846 | -73.89144 | 292 ft | 112 kts | 127° |
| 2026-05-05 22:30 | 40.78418 | -73.88246 | 133 ft | 117 kts | 127° |
| 2026-05-05 22:30 | 40.77982 | -73.87343 | 18 ft | 104 kts | 120° |
| 2026-05-05 22:31 | 40.77749 | -73.86858 | 17 ft | 35 kts | 120° |
| 2026-05-05 22:31 | 40.77677 | -73.86709 | 17 ft | 13 kts | 127° |
| 2026-05-05 22:31 | 40.77578 | -73.86618 | 16 ft | 19 kts | 148° |
| 2026-05-05 22:31 | 40.77554 | -73.86599 | 16 ft | 4 kts | 150° |
| 2026-05-05 22:32 | 40.77491 | -73.86571 | 17 ft | 15 kts | 173° |
| 2026-05-05 22:32 | 40.77471 | -73.86569 | 17 ft | 0 kts | 179° |
| 2026-05-05 22:33 | 40.77469 | -73.86569 | 17 ft | 1 kts | 179° |
| 2026-05-05 22:34 | 40.77448 | -73.86569 | 17 ft | 5 kts | 179° |
| 2026-05-05 22:34 | 40.77415 | -73.86550 | 17 ft | 6 kts | 159° |
| 2026-05-05 22:34 | 40.77403 | -73.86545 | 17 ft | 0 kts | 161° |
| 2026-05-05 22:35 | 40.77397 | -73.86542 | 17 ft | 3 kts | 161° |
| 2026-05-05 22:35 | 40.77368 | -73.86531 | 17 ft | 6 kts | 166° |
| 2026-05-05 22:36 | 40.77361 | -73.86529 | 17 ft | 1 kts | 166° |
| 2026-05-05 22:36 | 40.77347 | -73.86525 | 17 ft | 3 kts | 167° |
| 2026-05-05 22:36 | 40.77337 | -73.86521 | 17 ft | 1 kts | 167° |
| 2026-05-05 22:36 | 40.77331 | -73.86520 | 17 ft | 1 kts | 167° |
| 2026-05-05 22:37 | 40.77326 | -73.86519 | 17 ft | 0 kts | 168° |